Time;durP1;ratioP1;P1;durP2;ratioP2;P2;SDS_P1;SDS_P2;PMS_P1;PMS_P2;Temp;Humidity;BMP_temperature;BMP_pressure;BME280_temperature;BME280_humidity;BME280_pressure;Samples;Min_cycle;Max_cycle;Signal;HPM_P1;HPM_P2
2023/05/27 00:08:10;;;;;;;7.35;3.50;;;;;;;17.09;50.40;99949.09;7442500;39;20513;31
2023/05/27 00:13:46;;;;;;;10.45;3.85;;;;;;;17.17;49.90;99948.97;7384058;39;20312;31
2023/05/27 00:19:06;;;;;;;9.90;3.60;;;;;;;17.23;50.79;99941.94;7396152;39;20250;31
2023/05/27 00:24:42;;;;;;;11.00;4.40;;;;;;;17.09;49.94;99943.66;7422731;39;21350;31
2023/05/27 00:30:25;;;;;;;11.90;4.10;;;;;;;17.03;50.90;99942.53;7428752;39;20305;31
2023/05/27 00:35:45;;;;;;;10.30;3.70;;;;;;;16.95;50.54;99937.19;7465797;39;20401;31
2023/05/27 00:41:20;;;;;;;10.85;4.20;;;;;;;17.02;50.32;99937.28;7463580;39;20335;31
2023/05/27 00:46:54;;;;;;;12.87;3.80;;;;;;;17.00;50.55;99939.34;7463444;39;20233;31
2023/05/27 00:52:29;;;;;;;9.90;3.75;;;;;;;16.99;50.12;99941.22;7465119;39;20324;31
2023/05/27 00:57:49;;;;;;;9.57;3.40;;;;;;;16.84;50.11;99929.50;7422153;39;20507;31
2023/05/27 01:03:25;;;;;;;8.83;3.90;;;;;;;16.85;50.57;99933.88;7442801;39;21285;31
2023/05/27 01:14:05;;;;;;;11.30;3.78;;;;;;;16.84;51.20;99929.50;7427898;39;20277;31
2023/05/27 01:19:44;;;;;;;8.73;3.90;;;;;;;16.70;51.41;99919.47;7439120;39;20236;31
2023/05/27 01:25:21;;;;;;;13.23;4.20;;;;;;;16.57;51.51;99925.56;7443148;39;20248;31
2023/05/27 01:30:55;;;;;;;12.17;4.57;;;;;;;16.59;50.82;99919.91;7442809;39;20266;31
2023/05/27 01:36:30;;;;;;;10.17;3.97;;;;;;;16.51;51.71;99914.53;7440282;39;20339;31
2023/05/27 01:42:06;;;;;;;8.75;3.65;;;;;;;16.47;51.75;99911.34;7410267;39;20239;31
2023/05/27 01:47:41;;;;;;;13.13;4.45;;;;;;;16.31;51.91;99902.53;7444548;39;20337;31
2023/05/27 01:53:16;;;;;;;10.43;3.60;;;;;;;16.26;51.37;99899.50;7412042;39;20241;31
2023/05/27 01:58:52;;;;;;;9.70;3.40;;;;;;;16.15;51.67;99898.06;7379057;39;20241;31
2023/05/27 02:04:27;;;;;;;9.20;3.60;;;;;;;16.16;51.97;99903.34;7401700;39;20360;31
2023/05/27 02:10:03;;;;;;;13.05;3.80;;;;;;;16.15;51.89;99896.19;7403845;39;20228;31
2023/05/27 02:15:40;;;;;;;8.80;3.80;;;;;;;16.14;52.48;99889.09;7414012;39;20255;31
2023/05/27 02:21:14;;;;;;;10.07;3.60;;;;;;;16.09;52.08;99899.69;7418784;39;20453;31
2023/05/27 02:26:49;;;;;;;11.37;4.60;;;;;;;16.07;52.09;99890.84;7423550;39;20241;31
2023/05/27 02:32:25;;;;;;;10.13;3.90;;;;;;;15.91;53.18;99882.00;7402352;39;20368;31
2023/05/27 02:37:45;;;;;;;8.90;3.90;;;;;;;15.92;52.21;99887.28;7403574;39;20255;31
2023/05/27 02:43:05;;;;;;;5.55;3.15;;;;;;;15.86;52.27;99885.28;7392366;39;20251;31
2023/05/27 02:48:42;;;;;;;10.77;3.90;;;;;;;15.76;52.97;99892.81;7424308;39;20365;31
2023/05/27 02:59:21;;;;;;;8.05;3.75;;;;;;;15.80;52.52;99879.75;7382441;39;20731;31
2023/05/27 03:04:57;;;;;;;10.03;4.00;;;;;;;15.74;52.54;99871.28;7402874;39;20236;31
2023/05/27 03:10:17;;;;;;;10.70;3.40;;;;;;;15.63;52.38;99879.00;7426385;38;20242;31
2023/05/27 03:15:38;;;;;;;9.33;3.53;;;;;;;15.60;52.94;99888.38;7470392;38;20340;31
2023/05/27 03:21:13;;;;;;;11.70;3.70;;;;;;;15.46;52.95;99889.13;7465247;39;20238;31
2023/05/27 03:26:48;;;;;;;9.30;3.80;;;;;;;15.51;52.83;99888.63;7431956;39;20235;31
2023/05/27 03:32:23;;;;;;;8.63;3.43;;;;;;;15.44;52.80;99887.63;7421824;39;20423;31
2023/05/27 03:37:59;;;;;;;15.00;4.10;;;;;;;15.28;53.27;99878.56;7446089;39;20363;31
2023/05/27 03:43:34;;;;;;;11.10;4.10;;;;;;;15.36;53.11;99879.53;7412571;39;20252;31
2023/05/27 03:49:09;;;;;;;12.87;3.80;;;;;;;15.36;53.25;99887.69;7447648;39;20337;31
2023/05/27 03:54:46;;;;;;;10.17;4.00;;;;;;;15.21;53.47;99885.75;7446082;39;20246;31
2023/05/27 04:00:21;;;;;;;8.80;3.93;;;;;;;15.23;53.61;99888.25;7441803;39;20256;31
2023/05/27 04:05:42;;;;;;;6.07;3.50;;;;;;;15.26;53.41;99894.22;7434060;39;20274;31
2023/05/27 04:16:23;;;;;;;12.80;4.10;;;;;;;15.25;53.04;99897.09;7462728;39;20261;31
2023/05/27 04:21:43;;;;;;;9.60;3.53;;;;;;;15.31;53.19;99894.47;7456688;38;20239;31
2023/05/27 04:27:19;;;;;;;9.90;3.50;;;;;;;15.32;52.70;99887.19;7491371;39;21432;31
2023/05/27 04:32:54;;;;;;;10.93;3.63;;;;;;;15.29;52.90;99893.84;7445358;39;20238;31
2023/05/27 04:38:15;;;;;;;13.33;3.50;;;;;;;15.30;52.67;99883.81;7400929;39;20243;31
2023/05/27 04:43:47;;;;;;;11.40;3.70;;;;;;;15.27;52.78;99886.87;7154496;39;21133;31
2023/05/27 04:49:22;;;;;;;13.10;3.90;;;;;;;15.29;53.13;99888.41;7338191;39;20264;31
2023/05/27 04:54:55;;;;;;;8.90;3.13;;;;;;;15.31;52.74;99882.81;7303824;39;20235;31
2023/05/27 05:00:23;;;;;;;9.60;3.80;;;;;;;15.36;52.75;99888.50;7323478;39;20270;31
2023/05/27 05:05:56;;;;;;;9.33;3.20;;;;;;;15.40;52.69;99880.88;7358456;39;20265;31
2023/05/27 05:11:30;;;;;;;11.33;3.80;;;;;;;15.50;52.17;99890.50;7344015;39;20278;31
2023/05/27 05:16:51;;;;;;;8.25;3.60;;;;;;;15.61;51.48;99892.81;7357542;39;20271;31
2023/05/27 05:27:43;;;;;;;8.40;3.80;;;;;;;15.71;51.70;99887.09;7362064;39;20323;31
2023/05/27 05:38:07;;;;;;;9.30;3.40;;;;;;;15.95;51.60;99888.75;7499077;39;20321;31
2023/05/27 05:43:43;;;;;;;9.80;3.40;;;;;;;15.97;51.72;99887.53;7486548;38;21343;31
2023/05/27 05:49:18;;;;;;;7.25;3.20;;;;;;;16.04;50.92;99893.94;7424409;39;20232;31
2023/05/27 05:54:36;;;;;;;11.53;3.67;;;;;;;16.17;50.86;99888.72;7399755;39;20370;31
2023/05/27 06:00:12;;;;;;;11.40;3.60;;;;;;;16.27;50.51;99890.31;7379967;39;20323;31
2023/05/27 06:05:32;;;;;;;9.83;3.70;;;;;;;16.48;49.72;99880.38;7363684;39;20236;31
2023/05/27 06:11:08;;;;;;;8.30;3.20;;;;;;;16.62;49.66;99884.16;7405130;39;20235;31
2023/05/27 06:16:44;;;;;;;9.20;3.20;;;;;;;16.66;49.42;99889.06;7466169;39;20238;31
2023/05/27 06:22:05;;;;;;;13.35;3.45;;;;;;;16.82;48.62;99885.25;7397175;39;20245;31
2023/05/27 06:27:25;;;;;;;14.94;4.00;;;;;;;16.99;48.56;99891.34;7445380;39;20261;31
2023/05/27 06:33:02;;;;;;;9.33;3.00;;;;;;;17.12;47.80;99891.50;7443800;39;20814;31
2023/05/27 06:38:37;;;;;;;9.00;3.20;;;;;;;17.21;48.01;99881.31;7442141;39;20727;31
2023/05/27 06:43:57;;;;;;;13.40;3.80;;;;;;;17.26;47.37;99879.72;7442899;39;20274;31
2023/05/27 06:49:31;;;;;;;7.67;3.10;;;;;;;17.47;47.71;99878.87;7380597;39;20776;31
2023/05/27 06:55:06;;;;;;;8.90;3.25;;;;;;;17.66;47.28;99881.00;7357885;39;20233;31
2023/05/27 07:00:42;;;;;;;11.17;3.77;;;;;;;17.84;46.06;99875.09;7379638;39;20766;31
2023/05/27 07:06:16;;;;;;;10.30;3.80;;;;;;;17.86;45.73;99882.00;7400100;39;20867;31
2023/05/27 07:11:36;;;;;;;8.67;3.23;;;;;;;17.86;46.12;99887.47;7361874;39;20694;31
2023/05/27 07:17:11;;;;;;;9.30;3.30;;;;;;;17.96;45.13;99884.41;7397151;39;20797;31
2023/05/27 07:22:47;;;;;;;9.70;3.43;;;;;;;18.02;45.09;99886.37;7357643;39;20245;31
2023/05/27 07:28:07;;;;;;;10.45;3.70;;;;;;;18.19;45.26;99893.22;7400106;39;20258;31
2023/05/27 07:33:42;;;;;;;10.10;3.50;;;;;;;18.32;45.57;99896.03;7400544;39;20848;31
2023/05/27 07:39:18;;;;;;;12.90;3.70;;;;;;;18.42;45.84;99882.03;7368751;39;20259;31
2023/05/27 07:44:53;;;;;;;8.50;3.70;;;;;;;18.58;45.23;99879.00;7365617;39;20262;31
2023/05/27 07:55:33;;;;;;;13.30;3.93;;;;;;;18.66;44.66;99862.44;7407607;39;20292;31
2023/05/27 08:00:53;;;;;;;16.27;4.17;;;;;;;19.00;44.76;99858.00;7425629;39;20707;31
2023/05/27 08:06:26;;;;;;;9.70;3.50;;;;;;;18.98;44.88;99860.06;7435629;39;20858;31
2023/05/27 08:12:02;;;;;;;13.00;3.90;;;;;;;19.15;45.11;99853.19;7426001;39;20798;31
2023/05/27 08:17:37;;;;;;;10.40;3.90;;;;;;;19.28;44.74;99851.34;7369433;39;20709;31
2023/05/27 08:23:12;;;;;;;9.90;3.70;;;;;;;19.23;44.42;99840.19;7384627;39;20678;31
2023/05/27 08:28:48;;;;;;;11.83;4.07;;;;;;;19.52;44.36;99846.38;7399100;39;20235;31
2023/05/27 08:34:10;;;;;;;8.17;4.03;;;;;;;19.75;44.34;99853.09;7379583;39;20243;31
2023/05/27 08:39:44;;;;;;;11.80;3.80;;;;;;;19.94;43.97;99836.91;7420362;39;20270;31
2023/05/27 08:45:22;;;;;;;12.47;4.10;;;;;;;20.02;43.71;99833.94;7402232;39;20735;31
2023/05/27 08:51:03;;;;;;;8.10;3.60;;;;;;;20.24;44.29;99830.75;7261472;39;20348;31
2023/05/27 09:01:42;;;;;;;10.72;3.78;;;;;;;20.49;43.88;99817.25;7415112;39;20266;31
2023/05/27 09:12:22;;;;;;;11.93;4.40;;;;;;;20.62;43.82;99822.69;7455559;39;20290;31
2023/05/27 09:23:03;;;;;;;10.07;3.77;;;;;;;20.91;43.73;99806.75;7523433;38;20264;31
2023/05/27 09:28:39;;;;;;;11.00;3.80;;;;;;;21.08;43.10;99800.56;7513364;38;21275;31
2023/05/27 09:34:15;;;;;;;10.57;4.20;;;;;;;21.24;43.71;99801.94;7442519;39;20250;31
2023/05/27 09:39:51;;;;;;;12.58;4.32;;;;;;;21.46;42.75;99791.47;7485685;39;20238;31
2023/05/27 09:45:26;;;;;;;12.25;4.50;;;;;;;21.67;43.25;99793.84;7491607;39;20237;31
2023/05/27 09:51:02;;;;;;;13.38;4.78;;;;;;;21.76;42.46;99798.00;7499379;38;20285;31
2023/05/27 09:56:39;;;;;;;8.63;3.85;;;;;;;21.84;42.36;99786.72;7465340;39;20242;31
2023/05/27 10:02:14;;;;;;;13.15;3.95;;;;;;;22.03;42.72;99784.88;7397272;39;20269;31
2023/05/27 10:07:51;;;;;;;10.98;4.12;;;;;;;22.32;42.02;99778.66;7359008;39;20802;31
2023/05/27 10:13:28;;;;;;;11.40;3.90;;;;;;;22.52;42.34;99783.06;7359832;39;20235;31
2023/05/27 10:19:03;;;;;;;9.15;3.55;;;;;;;22.48;42.05;99778.03;7371492;39;20355;31
2023/05/27 10:24:47;;;;;;;12.27;4.43;;;;;;;22.61;41.89;99773.44;7351831;39;20795;31
2023/05/27 10:30:25;;;;;;;13.32;5.82;;;;;;;22.62;42.35;99775.97;7407255;39;20291;31
2023/05/27 10:35:59;;;;;;;12.30;4.50;;;;;;;23.04;42.13;99767.81;7401477;39;20692;31
2023/05/27 10:41:35;;;;;;;14.77;4.35;;;;;;;23.35;41.12;99764.81;7470123;39;20252;31
2023/05/27 10:47:19;;;;;;;11.18;4.07;;;;;;;23.41;39.75;99750.13;7464872;39;20791;31
2023/05/27 10:52:53;;;;;;;12.35;4.15;;;;;;;23.58;41.09;99753.91;7451785;39;22174;31
2023/05/27 11:03:35;;;;;;;13.57;6.40;;;;;;;23.68;40.16;99745.91;7465019;39;20253;31
2023/05/27 11:08:56;;;;;;;9.40;4.05;;;;;;;23.92;39.31;99743.13;7418088;39;20332;31
2023/05/27 11:19:53;;;;;;;10.27;4.07;;;;;;;24.14;39.94;99724.91;7465356;39;20354;31
2023/05/27 11:30:34;;;;;;;11.48;4.25;;;;;;;24.26;39.12;99713.94;7464994;38;20257;31
2023/05/27 11:36:20;;;;;;;9.90;4.62;;;;;;;24.35;38.55;99698.69;7514966;38;20339;31
2023/05/27 11:42:02;;;;;;;8.38;4.65;;;;;;;24.52;38.45;99697.69;7443559;39;20707;31
2023/05/27 11:47:35;;;;;;;8.05;4.70;;;;;;;24.87;38.84;99693.97;7220748;39;21211;31
2023/05/27 11:53:12;;;;;;;8.77;4.28;;;;;;;24.79;38.50;99689.66;7445116;39;20349;31
2023/05/27 11:58:33;;;;;;;8.20;4.50;;;;;;;24.88;38.28;99676.34;7448837;39;20250;31
2023/05/27 12:04:07;;;;;;;8.60;4.30;;;;;;;24.96;37.80;99664.91;7442819;39;20765;31
2023/05/27 12:09:45;;;;;;;8.68;4.38;;;;;;;25.13;38.19;99658.31;7423622;39;20239;31
2023/05/27 12:15:25;;;;;;;8.97;4.40;;;;;;;25.28;38.42;99659.63;7467061;39;20238;31
2023/05/27 12:20:57;;;;;;;8.88;4.60;;;;;;;25.47;37.37;99647.25;7466962;38;20672;31
2023/05/27 12:26:34;;;;;;;10.15;4.60;;;;;;;25.49;37.06;99643.13;7442822;39;20238;31
2023/05/27 12:32:09;;;;;;;7.20;3.60;;;;;;;25.45;36.98;99644.72;7462962;39;20915;31
2023/05/27 12:42:50;;;;;;;7.83;4.63;;;;;;;25.56;35.97;99626.44;7462265;39;20250;31
2023/05/27 12:53:15;;;;;;;6.93;4.17;;;;;;;25.73;35.58;99613.44;7517020;38;20280;31
2023/05/27 13:03:56;;;;;;;9.25;3.90;;;;;;;25.80;35.57;99593.94;7518427;38;20335;31
2023/05/27 13:09:31;;;;;;;7.65;4.60;;;;;;;25.89;34.51;99601.50;7483843;38;20814;31
2023/05/27 13:14:52;;;;;;;10.70;4.30;;;;;;;25.50;35.27;99599.81;7467822;39;20280;31
2023/05/27 13:25:33;;;;;;;7.95;3.95;;;;;;;25.83;34.61;99588.72;7508428;38;20426;31
2023/05/27 13:30:54;;;;;;;8.40;4.10;;;;;;;26.01;33.20;99588.41;7513209;38;20273;31
2023/05/27 13:41:35;;;;;;;8.25;3.45;;;;;;;25.88;33.56;99563.94;7463370;39;20269;31
2023/05/27 13:52:00;;;;;;;6.25;4.28;;;;;;;26.11;33.01;99560.03;7487756;39;20265;31
2023/05/27 13:57:36;;;;;;;10.25;3.85;;;;;;;26.26;34.60;99540.06;7467011;39;20770;31
2023/05/27 14:03:11;;;;;;;9.70;4.15;;;;;;;26.09;32.50;99545.66;7491452;38;21971;31
2023/05/27 14:08:32;;;;;;;9.10;4.00;;;;;;;25.97;33.20;99536.69;7489251;38;20257;31
2023/05/27 14:19:12;;;;;;;7.82;4.02;;;;;;;25.91;33.10;99516.44;7439618;39;20259;31
2023/05/27 14:29:37;;;;;;;7.95;3.67;;;;;;;26.00;33.75;99516.81;7460147;38;20298;31
2023/05/27 14:35:13;;;;;;;8.05;4.00;;;;;;;26.16;33.46;99501.22;7443228;39;20242;31
2023/05/27 14:40:49;;;;;;;6.35;3.90;;;;;;;26.09;33.04;99495.91;7444831;39;20761;31
2023/05/27 14:46:10;;;;;;;6.17;3.93;;;;;;;26.27;33.97;99490.06;7448702;39;20254;31
2023/05/27 14:51:46;;;;;;;6.60;3.60;;;;;;;26.14;32.99;99487.69;7475978;38;20778;31
2023/05/27 14:57:06;;;;;;;8.45;3.90;;;;;;;25.95;33.49;99484.44;7444507;39;20391;31
2023/05/27 15:02:41;;;;;;;9.85;3.60;;;;;;;26.03;33.09;99481.22;7400145;39;20709;31
2023/05/27 15:08:17;;;;;;;7.00;3.65;;;;;;;26.09;33.18;99481.25;7424783;39;20726;31
2023/05/27 15:13:54;;;;;;;11.03;3.60;;;;;;;26.19;33.44;99476.69;7440185;39;20683;31
2023/05/27 15:19:12;;;;;;;7.72;4.15;;;;;;;26.02;33.21;99474.00;7443805;39;20282;31
2023/05/27 15:24:46;;;;;;;9.82;3.87;;;;;;;25.90;32.55;99469.72;7456781;39;20887;31
2023/05/27 15:30:21;;;;;;;7.20;3.60;;;;;;;25.97;33.35;99465.69;7443643;39;20258;31
2023/05/27 15:35:57;;;;;;;8.68;3.45;;;;;;;25.96;33.15;99463.19;7445923;39;20243;31
2023/05/27 15:41:31;;;;;;;7.98;3.82;;;;;;;26.04;32.92;99459.94;7407487;39;20259;31
2023/05/27 15:46:52;;;;;;;7.25;3.67;;;;;;;26.04;31.81;99454.41;7400202;39;20843;31
2023/05/27 15:52:27;;;;;;;6.22;3.95;;;;;;;25.91;31.81;99438.25;7384689;39;20354;31
2023/05/27 16:03:07;;;;;;;9.38;3.97;;;;;;;25.96;31.59;99441.06;7464355;39;20439;31
2023/05/27 16:13:34;;;;;;;7.07;3.43;;;;;;;25.91;30.71;99450.16;7515484;38;20265;31
2023/05/27 16:24:13;;;;;;;7.88;3.70;;;;;;;25.69;30.14;99441.06;7465818;39;20281;31
2023/05/27 16:29:34;;;;;;;7.03;3.00;;;;;;;25.61;29.47;99430.47;7448753;39;20702;31
2023/05/27 16:35:08;;;;;;;6.47;3.10;;;;;;;25.71;30.74;99421.47;7403904;39;20235;31
2023/05/27 16:40:45;;;;;;;5.30;2.90;;;;;;;25.66;29.91;99418.66;7362234;39;20335;31
2023/05/27 16:46:06;;;;;;;6.16;3.20;;;;;;;25.50;29.91;99417.59;7400115;39;20921;31
2023/05/27 16:56:47;;;;;;;4.30;2.60;;;;;;;25.14;30.53;99408.06;7422890;39;20282;31
2023/05/27 17:02:24;;;;;;;8.58;3.38;;;;;;;24.96;30.52;99403.69;7448678;39;20232;31
2023/05/27 17:07:58;;;;;;;7.62;3.12;;;;;;;24.83;31.12;99406.78;7431033;39;20249;31
2023/05/27 17:13:34;;;;;;;5.47;2.90;;;;;;;24.66;30.41;99403.22;7487992;39;20282;31
2023/05/27 17:19:09;;;;;;;6.00;3.00;;;;;;;24.65;32.13;99404.31;7493519;39;20275;31
2023/05/27 17:24:44;;;;;;;4.96;2.90;;;;;;;24.50;31.88;99415.06;7444452;39;20849;31
2023/05/27 17:30:22;;;;;;;5.78;2.92;;;;;;;24.27;31.83;99399.53;7381955;39;20790;31
2023/05/27 17:35:57;;;;;;;10.44;2.80;;;;;;;24.14;31.77;99397.09;7422125;39;20255;31
2023/05/27 17:41:32;;;;;;;8.40;3.28;;;;;;;24.01;33.19;99405.69;7431276;39;20808;31
2023/05/27 17:52:15;;;;;;;7.10;3.10;;;;;;;23.90;33.22;99403.84;7397100;39;20270;31
2023/05/27 18:02:38;;;;;;;6.78;2.80;;;;;;;23.77;34.52;99405.81;7452486;39;20261;31
2023/05/27 18:08:15;;;;;;;5.10;2.90;;;;;;;23.64;34.02;99397.88;7511431;38;20281;31
2023/05/27 18:18:38;;;;;;;4.50;2.70;;;;;;;23.64;34.46;99408.03;7514426;38;20779;31
2023/05/27 18:24:12;;;;;;;6.07;3.20;;;;;;;23.52;34.16;99408.06;7442757;39;20753;31
2023/05/27 18:29:46;;;;;;;7.15;2.90;;;;;;;23.37;35.52;99410.50;7442432;39;20314;31
2023/05/27 18:35:15;;;;;;;6.07;3.33;;;;;;;23.28;34.23;99411.97;7448300;39;20234;31
2023/05/27 18:40:45;;;;;;;8.50;3.20;;;;;;;23.18;34.88;99407.06;7465952;39;20270;31
2023/05/27 18:46:20;;;;;;;8.80;2.90;;;;;;;23.09;34.59;99402.19;7370199;39;20298;31
2023/05/27 18:51:40;;;;;;;9.60;3.50;;;;;;;22.98;36.24;99411.31;7381665;39;20240;31
2023/05/27 18:57:22;;;;;;;9.00;2.95;;;;;;;22.78;37.28;99401.53;7400590;39;20262;31
2023/05/27 19:02:38;;;;;;;8.00;3.42;;;;;;;22.57;37.95;99410.34;7356917;39;20437;31
2023/05/27 19:08:13;;;;;;;8.66;3.44;;;;;;;22.34;38.55;99407.59;7386801;39;20321;31
2023/05/27 19:13:46;;;;;;;6.75;3.62;;;;;;;22.17;38.57;99409.34;7236363;39;20322;31
2023/05/27 19:19:21;;;;;;;7.57;3.25;;;;;;;22.00;38.99;99414.69;7477194;39;20284;31
2023/05/27 19:24:41;;;;;;;5.20;3.08;;;;;;;21.89;39.74;99421.81;7465633;39;20245;31
2023/05/27 19:30:15;;;;;;;9.18;3.55;;;;;;;21.70;39.99;99419.34;7468055;39;20246;31
2023/05/27 19:35:36;;;;;;;10.55;3.25;;;;;;;21.49;41.09;99428.94;7444464;39;20253;31
2023/05/27 19:41:11;;;;;;;8.15;3.25;;;;;;;21.25;41.39;99433.44;7431993;39;20261;31
2023/05/27 19:46:47;;;;;;;8.60;3.65;;;;;;;21.11;42.15;99429.16;7402950;39;20335;31
2023/05/27 19:52:07;;;;;;;8.30;3.50;;;;;;;20.94;42.36;99430.81;7363066;39;20234;31
2023/05/27 19:57:28;;;;;;;7.35;3.30;;;;;;;20.75;43.42;99420.94;7403869;39;20349;31
2023/05/27 20:03:03;;;;;;;6.68;3.15;;;;;;;20.57;43.10;99424.50;7406394;39;20267;31
2023/05/27 20:08:38;;;;;;;8.70;3.55;;;;;;;20.49;42.92;99420.13;7465856;38;20332;31
2023/05/27 20:13:58;;;;;;;5.94;3.60;;;;;;;20.36;43.82;99424.91;7442142;39;20241;31
2023/05/27 20:19:33;;;;;;;8.77;3.10;;;;;;;20.23;42.96;99423.91;7442468;39;20253;31
2023/05/27 20:25:08;;;;;;;7.64;4.00;;;;;;;20.17;43.60;99426.69;7318863;39;20404;31
2023/05/27 20:30:28;;;;;;;6.23;3.60;;;;;;;20.08;43.85;99425.31;7322342;39;20256;31
2023/05/27 20:36:04;;;;;;;7.52;3.68;;;;;;;19.94;44.38;99426.44;7361514;39;20327;31
2023/05/27 20:41:39;;;;;;;11.50;4.00;;;;;;;19.85;44.69;99427.78;7363393;39;20338;31
2023/05/27 20:47:14;;;;;;;5.70;3.55;;;;;;;19.77;44.52;99429.72;7374321;39;20238;31
2023/05/27 20:52:50;;;;;;;6.00;3.45;;;;;;;19.61;44.64;99422.06;7423775;39;20261;31
2023/05/27 20:58:10;;;;;;;5.68;3.53;;;;;;;19.53;45.15;99416.81;7404039;39;20297;31
2023/05/27 21:03:32;;;;;;;5.78;3.22;;;;;;;19.45;45.31;99418.97;7400918;39;20378;31
2023/05/27 21:09:06;;;;;;;7.63;3.60;;;;;;;19.33;45.63;99411.44;7359175;39;20393;31
2023/05/27 21:14:26;;;;;;;8.77;3.40;;;;;;;19.33;45.82;99410.59;7402140;39;20242;31
2023/05/27 21:19:46;;;;;;;6.00;3.50;;;;;;;19.24;46.01;99409.16;7419264;39;20273;31
2023/05/27 21:25:21;;;;;;;5.67;3.37;;;;;;;19.14;46.35;99406.87;7400256;39;20250;31
2023/05/27 21:30:41;;;;;;;6.57;3.67;;;;;;;19.11;45.39;99404.59;7386023;39;21329;31
2023/05/27 21:41:22;;;;;;;9.40;3.40;;;;;;;18.93;45.91;99398.97;7382296;39;20273;31
2023/05/27 21:46:42;;;;;;;5.57;3.13;;;;;;;18.86;46.43;99399.00;7379227;39;20271;31
2023/05/27 21:52:04;;;;;;;7.27;3.53;;;;;;;18.77;46.49;99400.31;7379476;39;20270;31
2023/05/27 22:02:44;;;;;;;5.87;3.37;;;;;;;18.47;46.62;99399.06;7411844;39;20386;31
2023/05/27 22:08:20;;;;;;;9.10;3.60;;;;;;;18.41;47.23;99399.91;7423361;39;20239;31
2023/05/27 22:13:39;;;;;;;6.70;3.40;;;;;;;18.35;46.80;99396.12;7441715;39;20249;31
2023/05/27 22:19:13;;;;;;;7.00;3.20;;;;;;;18.28;47.22;99381.66;7470424;39;20425;31
2023/05/27 22:24:48;;;;;;;6.83;3.23;;;;;;;18.27;47.04;99382.72;7397839;39;20274;31
2023/05/27 22:30:23;;;;;;;7.10;3.63;;;;;;;18.18;47.48;99377.69;7403659;39;20466;31
2023/05/27 22:35:58;;;;;;;6.30;3.30;;;;;;;18.05;47.93;99375.78;7377901;39;20256;31
2023/05/27 22:41:32;;;;;;;6.60;3.50;;;;;;;18.03;47.46;99369.72;7368136;39;20294;31
2023/05/27 22:46:53;;;;;;;5.67;3.43;;;;;;;18.06;47.03;99369.28;7389200;39;20263;31
2023/05/27 22:52:29;;;;;;;6.20;2.80;;;;;;;17.96;47.64;99356.06;7461934;38;20242;31
2023/05/27 22:58:04;;;;;;;6.60;3.45;;;;;;;17.94;47.79;99355.47;7442709;39;21487;31
2023/05/27 23:03:25;;;;;;;4.53;3.00;;;;;;;17.93;47.38;99363.84;7417309;39;20254;31
2023/05/27 23:09:00;;;;;;;5.60;3.00;;;;;;;17.87;47.40;99354.59;7422997;39;20306;31
2023/05/27 23:14:35;;;;;;;5.70;3.17;;;;;;;17.75;47.25;99350.84;7427009;39;20320;31
2023/05/27 23:20:08;;;;;;;5.87;2.90;;;;;;;17.70;47.37;99347.03;7431605;38;20269;31
2023/05/27 23:30:47;;;;;;;6.83;3.10;;;;;;;17.56;47.38;99354.34;7422526;39;20280;31
2023/05/27 23:41:27;;;;;;;12.07;3.40;;;;;;;17.58;45.11;99346.84;7474732;38;20293;31
2023/05/27 23:52:08;;;;;;;8.00;3.00;;;;;;;17.51;46.01;99335.03;7496596;39;20227;31
2023/05/27 23:57:28;;;;;;;4.73;2.97;;;;;;;17.70;45.45;99339.72;7421433;39;20224;31
